createdAt,value
2022-12-28T00:01:46.051Z,2.42
2022-12-28T00:04:15.649Z,2.72
2022-12-28T00:06:42.881Z,2.35
2022-12-28T00:09:13.218Z,2.35
2022-12-28T00:11:40.311Z,2.22
2022-12-28T00:14:07.726Z,2.40
2022-12-28T00:16:37.267Z,2.33
2022-12-28T00:19:24.335Z,2.65
2022-12-28T00:21:54.054Z,3.38
2022-12-28T00:24:26.419Z,2.75
2022-12-28T00:26:57.425Z,2.38
2022-12-28T00:29:25.047Z,2.60
2022-12-28T00:31:52.669Z,2.63
2022-12-28T00:34:22.510Z,2.80
2022-12-28T00:37:08.790Z,2.65
2022-12-28T00:39:39.941Z,2.78
2022-12-28T00:42:13.415Z,3.05
2022-12-28T00:44:40.739Z,3.50
2022-12-28T00:47:07.757Z,2.25
2022-12-28T00:49:34.917Z,2.63
2022-12-28T00:52:01.883Z,2.22
2022-12-28T00:54:31.739Z,2.40
2022-12-28T00:56:58.683Z,2.20
2022-12-28T00:59:25.581Z,2.35
2022-12-28T01:01:53.008Z,2.55
2022-12-28T01:04:20.009Z,2.10
2022-12-28T01:06:46.921Z,2.55
2022-12-28T01:09:13.945Z,3.03
2022-12-28T01:11:40.821Z,3.00
2022-12-28T01:14:07.796Z,2.28
2022-12-28T01:16:36.282Z,2.63
2022-12-28T01:19:05.623Z,2.63
2022-12-28T01:21:34.707Z,2.30
2022-12-28T01:24:04.652Z,2.75
2022-12-28T01:26:31.910Z,2.65
2022-12-28T01:28:59.185Z,2.78
2022-12-28T01:31:26.945Z,2.50
2022-12-28T01:33:54.399Z,2.50
2022-12-28T01:36:34.084Z,2.35
2022-12-28T01:39:04.014Z,2.60
2022-12-28T01:41:31.657Z,2.88
2022-12-28T01:43:58.860Z,2.08
2022-12-28T01:46:47.511Z,2.40
2022-12-28T01:49:17.137Z,3.15
2022-12-28T01:51:59.419Z,2.30
2022-12-28T01:54:30.095Z,2.17
2022-12-28T01:56:57.832Z,3.00
2022-12-28T01:59:27.769Z,2.58
2022-12-28T02:01:55.128Z,2.60
2022-12-28T02:04:22.186Z,2.38
2022-12-28T02:06:49.271Z,2.10
2022-12-28T02:09:42.959Z,3.25
2022-12-28T02:12:13.696Z,2.47
2022-12-28T02:14:41.523Z,2.47
2022-12-28T02:17:10.112Z,2.42
2022-12-28T02:19:52.000Z,3.17
2022-12-28T02:22:58.134Z,2.72
2022-12-28T02:25:45.276Z,2.38
2022-12-28T02:28:51.145Z,2.05
2022-12-28T02:31:46.012Z,2.63
2022-12-28T02:34:31.963Z,2.38
2022-12-28T02:37:37.612Z,2.00
2022-12-28T02:41:20.211Z,2.10
2022-12-28T02:43:53.177Z,2.25
2022-12-28T02:46:55.531Z,2.45
2022-12-28T02:49:59.099Z,1.83
2022-12-28T02:53:02.186Z,2.10
2022-12-28T02:55:55.906Z,1.73
2022-12-28T02:58:44.753Z,1.85
2022-12-28T03:01:38.316Z,2.83
2022-12-28T03:04:19.220Z,2.88
2022-12-28T03:07:07.937Z,2.83
2022-12-28T03:09:57.467Z,2.33
2022-12-28T03:12:44.521Z,2.25
2022-12-28T03:15:30.779Z,1.70
2022-12-28T03:18:36.146Z,2.50
2022-12-28T03:21:25.150Z,2.38
2022-12-28T03:24:12.364Z,1.88
2022-12-28T03:33:11.647Z,1.92
2022-12-28T03:36:30.983Z,2.30
2022-12-28T03:39:08.941Z,2.70
2022-12-28T03:41:41.162Z,2.40
2022-12-28T03:44:13.046Z,1.70
2022-12-28T03:46:57.124Z,2.30
2022-12-28T03:49:24.809Z,2.03
2022-12-28T03:51:52.128Z,2.20
2022-12-28T03:54:21.811Z,2.50
2022-12-28T03:56:50.834Z,2.50
2022-12-28T03:59:20.616Z,2.30
2022-12-28T04:01:47.640Z,2.38
2022-12-28T04:04:20.125Z,2.10
2022-12-28T04:06:52.334Z,2.20
2022-12-28T04:09:22.556Z,2.23
2022-12-28T04:11:56.929Z,2.30
2022-12-28T04:14:26.718Z,2.25
2022-12-28T04:16:53.542Z,1.92
2022-12-28T04:19:20.495Z,1.95
2022-12-28T04:21:47.379Z,1.90
2022-12-28T04:24:14.167Z,2.00
2022-12-28T04:26:41.008Z,1.75
2022-12-28T04:29:08.423Z,1.77
2022-12-28T04:31:35.373Z,1.95
2022-12-28T04:34:02.243Z,1.60
2022-12-28T04:36:29.808Z,2.20
2022-12-28T04:38:58.101Z,2.05
2022-12-28T04:41:24.956Z,1.83
2022-12-28T04:43:51.918Z,2.50
2022-12-28T04:46:18.834Z,2.05
2022-12-28T04:48:45.699Z,1.88
2022-12-28T04:51:24.775Z,1.70
2022-12-28T04:53:51.868Z,2.10
2022-12-28T04:56:20.116Z,2.17
2022-12-28T04:58:47.099Z,1.85
2022-12-28T05:01:17.443Z,1.30
2022-12-28T05:03:51.037Z,1.90
2022-12-28T05:06:22.995Z,1.80
2022-12-28T05:08:50.037Z,1.65
2022-12-28T05:11:22.532Z,2.13
2022-12-28T05:13:49.986Z,1.85
2022-12-28T05:16:19.380Z,1.50
2022-12-28T05:18:46.481Z,1.67
2022-12-28T05:21:20.615Z,2.10
2022-12-28T05:23:47.809Z,1.85
2022-12-28T05:26:18.307Z,1.85
2022-12-28T05:28:45.524Z,1.63
2022-12-28T05:31:14.413Z,1.80
2022-12-28T05:33:41.474Z,1.75
2022-12-28T05:36:17.438Z,2.85
2022-12-28T05:38:44.548Z,1.75
2022-12-28T05:41:20.993Z,1.45
2022-12-28T05:43:48.345Z,1.27
2022-12-28T05:46:21.200Z,1.58
2022-12-28T05:48:48.107Z,1.90
2022-12-28T05:51:17.530Z,1.88
2022-12-28T05:53:44.966Z,2.25
2022-12-28T05:56:15.252Z,1.73
2022-12-28T05:58:43.701Z,1.40
2022-12-28T06:01:12.676Z,1.63
2022-12-28T06:03:40.245Z,1.67
2022-12-28T06:06:10.892Z,2.20
2022-12-28T06:08:38.458Z,1.98
2022-12-28T06:11:07.852Z,1.80
2022-12-28T06:13:35.104Z,1.50
2022-12-28T06:16:17.800Z,1.60
2022-12-28T06:18:45.501Z,1.85
2022-12-28T06:21:15.190Z,1.40
2022-12-28T06:23:42.667Z,1.50
2022-12-28T06:26:12.508Z,1.67
2022-12-28T06:28:39.932Z,1.48
2022-12-28T06:31:13.521Z,1.95
2022-12-28T06:33:41.180Z,1.60
2022-12-28T06:36:22.380Z,1.40
2022-12-28T06:38:50.603Z,1.30
2022-12-28T06:41:19.453Z,1.27
2022-12-28T06:43:47.203Z,1.88
2022-12-28T06:46:15.835Z,1.08
2022-12-28T06:48:43.104Z,1.35
2022-12-28T06:51:39.339Z,1.50
2022-12-28T06:54:06.902Z,1.10
2022-12-28T06:56:36.216Z,1.10
2022-12-28T06:59:04.456Z,1.10
2022-12-28T07:01:36.548Z,1.10
2022-12-28T07:04:05.138Z,1.10
2022-12-28T07:06:36.224Z,1.40
2022-12-28T07:09:04.896Z,1.80
2022-12-28T07:11:31.781Z,1.50
2022-12-28T07:13:59.141Z,1.65
2022-12-28T07:16:27.688Z,1.58
2022-12-28T07:18:55.175Z,1.33
2022-12-28T07:21:24.764Z,1.10
2022-12-28T07:23:52.959Z,1.20
2022-12-28T07:26:22.773Z,1.42
2022-12-28T07:28:51.760Z,1.17
2022-12-28T07:31:21.286Z,1.35
2022-12-28T07:33:48.768Z,1.35
2022-12-28T07:36:17.967Z,1.13
2022-12-28T07:38:45.060Z,0.93
2022-12-28T07:41:18.160Z,1.20
2022-12-28T07:46:14.065Z,0.90
2022-12-28T07:48:41.979Z,1.25
2022-12-28T07:51:12.427Z,1.15
2022-12-28T07:53:39.857Z,1.33
2022-12-28T07:56:07.501Z,1.10
2022-12-28T07:58:34.784Z,1.00
2022-12-28T08:01:05.504Z,1.25
2022-12-28T08:03:33.247Z,1.13
2022-12-28T08:06:13.478Z,1.08
2022-12-28T08:08:42.460Z,0.98
2022-12-28T08:11:11.926Z,1.00
2022-12-28T08:13:40.703Z,1.45
2022-12-28T08:16:08.369Z,1.00
2022-12-28T08:18:35.457Z,1.02
2022-12-28T08:21:08.647Z,1.10
2022-12-28T08:23:35.563Z,0.90
2022-12-28T08:26:11.919Z,0.73
2022-12-28T08:28:40.032Z,0.95
2022-12-28T08:31:12.366Z,0.80
2022-12-28T08:33:41.834Z,0.85
2022-12-28T08:36:09.632Z,0.98
2022-12-28T08:38:37.917Z,0.93
2022-12-28T08:41:06.893Z,1.00
2022-12-28T08:43:34.775Z,0.90
2022-12-28T08:46:05.251Z,0.70
2022-12-28T08:48:34.474Z,0.80
2022-12-28T08:51:06.784Z,0.82
2022-12-28T08:53:34.735Z,0.80
2022-12-28T08:56:06.801Z,0.98
2022-12-28T08:58:34.366Z,0.95
2022-12-28T09:01:19.996Z,1.10
2022-12-28T09:03:50.076Z,1.02
2022-12-28T09:06:20.487Z,0.93
2022-12-28T09:09:07.305Z,1.20
2022-12-28T09:11:38.704Z,0.90
2022-12-28T09:14:08.507Z,1.17
2022-12-28T09:16:36.851Z,1.00
2022-12-28T09:19:06.035Z,1.02
2022-12-28T09:21:35.601Z,0.90
2022-12-28T09:24:02.895Z,1.27
2022-12-28T09:26:32.123Z,0.63
2022-12-28T09:29:00.679Z,0.93
2022-12-28T09:31:29.404Z,0.60
2022-12-28T09:36:49.693Z,0.57
2022-12-28T09:39:22.058Z,1.27
2022-12-28T09:42:07.731Z,0.70
2022-12-28T09:44:34.584Z,0.85
2022-12-28T09:47:19.059Z,0.60
2022-12-28T09:49:49.040Z,0.85
2022-12-28T09:52:32.201Z,0.80
2022-12-28T09:55:15.144Z,0.90
2022-12-28T09:57:56.666Z,0.82
2022-12-28T10:00:27.230Z,0.70
2022-12-28T10:03:07.545Z,1.02
2022-12-28T10:05:34.713Z,0.95
2022-12-28T10:08:01.652Z,0.95
2022-12-28T10:10:28.809Z,0.90
2022-12-28T10:12:56.296Z,1.30
2022-12-28T10:15:23.791Z,0.70
2022-12-28T10:17:50.646Z,0.80
2022-12-28T10:20:20.597Z,0.80
2022-12-28T10:22:56.536Z,0.80
2022-12-28T10:25:26.616Z,1.30
2022-12-28T10:27:54.316Z,1.05
2022-12-28T10:30:30.386Z,1.33
2022-12-28T10:33:03.701Z,1.10
2022-12-28T10:35:41.270Z,0.93
2022-12-28T10:38:29.898Z,0.93
2022-12-28T10:41:04.196Z,0.90
2022-12-28T10:43:35.436Z,0.90
2022-12-28T10:46:03.419Z,1.17
2022-12-28T10:48:36.810Z,1.20
2022-12-28T10:51:09.877Z,1.05
2022-12-28T10:56:13.216Z,1.08
2022-12-28T10:58:47.250Z,1.20
2022-12-28T11:01:18.025Z,1.08
2022-12-28T11:03:58.569Z,1.50
2022-12-28T11:06:28.223Z,1.10
2022-12-28T11:09:17.544Z,0.93
2022-12-28T11:11:49.978Z,1.23
2022-12-28T11:14:26.027Z,1.00
2022-12-28T11:17:00.228Z,1.20
2022-12-28T11:19:35.128Z,0.85
2022-12-28T11:22:02.377Z,0.90
2022-12-28T11:24:30.122Z,0.80
2022-12-28T11:26:59.307Z,0.77
2022-12-28T11:29:26.186Z,0.93
2022-12-28T11:32:03.963Z,0.93
2022-12-28T11:34:31.702Z,1.00
2022-12-28T11:36:59.030Z,0.90
2022-12-28T11:39:25.987Z,1.27
2022-12-28T11:42:19.439Z,1.00
2022-12-28T11:44:40.506Z,0.70
2022-12-28T11:47:16.182Z,1.00
2022-12-28T11:49:47.570Z,1.00
2022-12-28T11:52:17.385Z,1.10
2022-12-28T11:55:23.514Z,1.17
2022-12-28T11:57:50.530Z,1.25
2022-12-28T12:00:22.255Z,1.13
2022-12-28T12:02:51.306Z,1.20
2022-12-28T12:05:38.821Z,1.10
2022-12-28T12:08:17.665Z,0.80
2022-12-28T12:10:48.112Z,1.10
2022-12-28T12:13:27.158Z,1.63
2022-12-28T12:15:57.895Z,0.90
2022-12-28T12:18:26.612Z,1.00
2022-12-28T12:21:11.637Z,1.00
2022-12-28T12:23:51.352Z,1.67
2022-12-28T12:26:27.756Z,1.13
2022-12-28T12:29:06.701Z,1.20
2022-12-28T12:31:38.020Z,1.20
2022-12-28T12:34:19.585Z,1.23
2022-12-28T12:37:05.924Z,1.40
2022-12-28T12:39:51.973Z,1.20
2022-12-28T12:43:13.083Z,3.55
2022-12-28T12:45:47.965Z,1.15
2022-12-28T12:48:29.439Z,0.93
2022-12-28T12:51:17.504Z,1.35
2022-12-28T12:54:02.989Z,1.67
2022-12-28T12:56:44.705Z,1.35
2022-12-28T12:59:37.388Z,1.27
2022-12-28T13:02:36.510Z,1.50
2022-12-28T13:05:04.815Z,1.40
2022-12-28T13:07:32.505Z,1.40
2022-12-28T13:10:03.381Z,1.33
2022-12-28T13:12:30.747Z,1.42
2022-12-28T13:15:00.370Z,1.85
2022-12-28T13:17:28.057Z,2.00
2022-12-28T13:20:18.932Z,2.10
2022-12-28T13:22:47.573Z,1.70
2022-12-28T13:25:28.209Z,1.70
2022-12-28T13:27:56.344Z,1.85
2022-12-28T13:30:24.584Z,1.30
2022-12-28T13:33:04.773Z,2.08
2022-12-28T13:35:33.940Z,2.15
2022-12-28T13:38:14.858Z,2.45
2022-12-28T13:40:50.295Z,1.80
2022-12-28T13:43:32.922Z,3.13
2022-12-28T13:46:08.003Z,1.10
2022-12-28T13:48:38.045Z,1.20
2022-12-28T13:51:08.793Z,1.20
2022-12-28T13:53:36.050Z,1.35
2022-12-28T13:56:04.724Z,1.40
2022-12-28T13:58:38.648Z,1.90
2022-12-28T14:01:13.300Z,1.85
2022-12-28T14:03:46.012Z,1.90
2022-12-28T14:06:17.399Z,1.00
2022-12-28T14:08:44.699Z,1.58
2022-12-28T14:11:11.986Z,2.33
2022-12-28T14:13:39.295Z,1.33
2022-12-28T14:16:06.811Z,1.33
2022-12-28T14:18:34.010Z,1.40
2022-12-28T14:21:01.236Z,1.60
2022-12-28T14:23:34.422Z,1.90
2022-12-28T14:26:08.049Z,1.98
2022-12-28T14:28:44.731Z,1.52
2022-12-28T14:31:14.118Z,1.63
2022-12-28T14:34:02.498Z,1.45
2022-12-28T14:36:51.473Z,1.48
2022-12-28T14:39:31.119Z,1.48
2022-12-28T14:41:59.228Z,1.50
2022-12-28T14:44:36.866Z,2.20
2022-12-28T14:47:03.879Z,1.08
2022-12-28T14:49:30.716Z,1.15
2022-12-28T14:52:09.591Z,1.63
2022-12-28T14:54:50.602Z,1.48
2022-12-28T14:57:43.345Z,3.28
2022-12-28T15:00:24.528Z,1.47
2022-12-28T15:02:52.102Z,1.50
2022-12-28T15:05:38.285Z,1.98
2022-12-28T15:08:05.443Z,2.25
2022-12-28T15:10:35.873Z,1.75
2022-12-28T15:13:02.928Z,1.48
2022-12-28T15:15:29.845Z,1.83
2022-12-28T15:17:56.679Z,1.65
2022-12-28T15:20:24.595Z,3.45
2022-12-28T15:22:51.809Z,2.10
2022-12-28T15:25:18.690Z,2.00
2022-12-28T15:27:49.845Z,1.95
2022-12-28T15:30:20.640Z,1.77
2022-12-28T15:32:51.481Z,2.10
2022-12-28T15:35:19.044Z,3.05
2022-12-28T15:37:45.943Z,1.80
2022-12-28T15:40:12.839Z,3.83
2022-12-28T15:42:40.752Z,1.60
2022-12-28T15:45:09.203Z,1.90
2022-12-28T15:47:36.339Z,1.85
2022-12-28T15:50:04.284Z,3.33
2022-12-28T15:52:32.045Z,2.33
2022-12-28T15:54:59.284Z,2.90
2022-12-28T15:57:26.425Z,2.55
2022-12-28T15:59:54.756Z,2.60
2022-12-28T16:02:22.234Z,2.83
2022-12-28T16:04:49.272Z,1.92
2022-12-28T16:07:16.449Z,1.50
2022-12-28T16:09:43.315Z,2.63
2022-12-28T16:12:10.248Z,1.65
2022-12-28T16:14:37.513Z,2.63
2022-12-28T16:17:04.406Z,2.08
2022-12-28T16:19:31.360Z,1.73
2022-12-28T16:21:58.867Z,1.88
2022-12-28T16:24:25.808Z,1.85
2022-12-28T16:26:52.791Z,1.92
2022-12-28T16:29:19.770Z,1.90
2022-12-28T16:31:46.786Z,1.98
2022-12-28T16:34:16.660Z,1.90
2022-12-28T16:36:45.947Z,3.10
2022-12-28T16:39:15.256Z,2.10
2022-12-28T16:41:42.393Z,3.03
2022-12-28T16:44:20.673Z,1.88
2022-12-28T16:46:48.331Z,1.75
2022-12-28T16:49:15.241Z,2.75
2022-12-28T16:51:45.096Z,2.20
2022-12-28T16:54:20.629Z,2.10
2022-12-28T16:56:49.480Z,2.13
2022-12-28T16:59:21.742Z,1.95
2022-12-28T17:01:49.294Z,1.87
2022-12-28T17:04:16.997Z,2.22
2022-12-28T17:06:44.561Z,1.73
2022-12-28T17:09:11.468Z,1.85
2022-12-28T17:11:38.413Z,1.77
2022-12-28T17:14:07.554Z,1.90
2022-12-28T17:16:35.009Z,1.80
2022-12-28T17:19:02.766Z,1.40
2022-12-28T17:21:31.309Z,1.88
2022-12-28T17:23:58.389Z,2.28
2022-12-28T17:26:25.399Z,1.40
2022-12-28T17:28:53.436Z,3.00
2022-12-28T17:31:22.079Z,6.53
2022-12-28T17:33:57.680Z,1.77
2022-12-28T17:36:25.268Z,1.45
2022-12-28T17:38:52.558Z,1.60
2022-12-28T17:41:22.458Z,1.17
2022-12-28T17:43:52.797Z,1.98
2022-12-28T17:46:20.767Z,1.40
2022-12-28T17:48:47.806Z,1.83
2022-12-28T17:51:14.874Z,2.10
2022-12-28T17:53:41.837Z,5.13
2022-12-28T17:56:11.155Z,4.50
2022-12-28T17:58:38.179Z,3.08
2022-12-28T18:01:05.323Z,1.90
2022-12-28T18:03:34.102Z,1.80
2022-12-28T18:06:01.421Z,1.45
2022-12-28T18:08:28.351Z,1.23
2022-12-28T18:10:55.336Z,2.08
2022-12-28T18:13:23.031Z,1.63
2022-12-28T18:15:50.034Z,1.50
2022-12-28T18:18:17.783Z,1.52
2022-12-28T18:20:44.830Z,2.25
2022-12-28T18:23:11.977Z,1.70
2022-12-28T18:25:39.021Z,1.63
2022-12-28T18:28:06.217Z,1.40
2022-12-28T18:30:33.165Z,1.95
2022-12-28T18:33:00.278Z,3.80
2022-12-28T18:35:27.381Z,2.35
2022-12-28T18:37:54.323Z,1.70
2022-12-28T18:40:21.263Z,2.55
2022-12-28T18:42:48.088Z,1.50
2022-12-28T18:45:14.978Z,2.63
2022-12-28T18:47:42.110Z,2.65
2022-12-28T18:50:09.626Z,1.70
2022-12-28T18:52:37.098Z,1.60
2022-12-28T18:55:04.366Z,1.70
2022-12-28T18:57:31.315Z,1.60
2022-12-28T18:59:58.199Z,1.90
2022-12-28T19:02:25.259Z,1.75
2022-12-28T19:04:53.356Z,1.75
2022-12-28T19:07:20.569Z,1.30
2022-12-28T19:10:12.065Z,1.50
2022-12-28T19:12:41.371Z,2.13
2022-12-28T19:15:09.295Z,2.50
2022-12-28T19:17:36.152Z,3.42
2022-12-28T19:20:04.524Z,2.40
2022-12-28T19:22:31.443Z,1.70
2022-12-28T19:24:59.045Z,1.60
2022-12-28T19:27:25.992Z,3.05
2022-12-28T19:29:52.855Z,5.70
2022-12-28T19:32:19.879Z,2.35
2022-12-28T19:34:46.705Z,1.98
2022-12-28T19:37:13.532Z,1.77
2022-12-28T19:39:40.500Z,2.60
2022-12-28T19:42:07.521Z,1.65
2022-12-28T19:44:34.393Z,2.30
2022-12-28T19:47:01.283Z,2.00
2022-12-28T19:49:28.417Z,2.13
2022-12-28T19:51:55.826Z,1.80
2022-12-28T19:54:22.954Z,1.65
2022-12-28T19:56:50.053Z,1.80
2022-12-28T19:59:16.944Z,1.77
2022-12-28T20:01:44.506Z,2.20
2022-12-28T20:04:14.459Z,1.65
2022-12-28T20:06:44.448Z,1.77
2022-12-28T20:09:12.564Z,2.00
2022-12-28T20:11:40.950Z,2.10
2022-12-28T20:14:08.439Z,1.60
2022-12-28T20:16:36.193Z,3.00
2022-12-28T20:19:06.743Z,1.60
2022-12-28T20:21:34.302Z,1.90
2022-12-28T20:24:01.815Z,2.63
2022-12-28T20:26:29.276Z,1.77
2022-12-28T20:29:01.162Z,2.20
2022-12-28T20:31:28.606Z,1.63
2022-12-28T20:33:55.518Z,1.73
2022-12-28T20:36:25.588Z,1.95
2022-12-28T20:38:53.353Z,1.33
2022-12-28T20:41:43.983Z,1.90
2022-12-28T20:44:13.879Z,1.40
2022-12-28T20:46:43.151Z,1.80
2022-12-28T20:49:10.184Z,1.77
2022-12-28T20:51:37.302Z,1.60
2022-12-28T20:54:04.621Z,1.98
2022-12-28T20:56:31.520Z,1.90
2022-12-28T20:58:58.883Z,1.70
2022-12-28T21:01:25.853Z,1.60
2022-12-28T21:03:52.905Z,1.63
2022-12-28T21:06:19.841Z,1.60
2022-12-28T21:08:46.739Z,1.75
2022-12-28T21:11:13.758Z,1.77
2022-12-28T21:13:44.617Z,1.58
2022-12-28T21:16:13.671Z,1.50
2022-12-28T21:18:40.971Z,1.77
2022-12-28T21:21:14.511Z,1.55
2022-12-28T21:23:41.414Z,1.30
2022-12-28T21:26:15.109Z,1.80
2022-12-28T21:28:42.906Z,1.58
2022-12-28T21:31:10.600Z,1.50
2022-12-28T21:33:38.086Z,1.25
2022-12-28T21:36:13.540Z,1.70
2022-12-28T21:38:41.171Z,1.65
2022-12-28T21:41:11.049Z,1.58
2022-12-28T21:43:38.131Z,1.80
2022-12-28T21:46:15.084Z,1.63
2022-12-28T21:48:42.564Z,1.42
2022-12-28T21:51:35.131Z,1.65
2022-12-28T21:54:03.802Z,1.30
2022-12-28T21:56:31.419Z,1.40
2022-12-28T21:58:59.021Z,1.92
2022-12-28T22:01:45.327Z,1.92
2022-12-28T22:04:33.003Z,1.70
2022-12-28T22:07:00.390Z,1.83
2022-12-28T22:09:45.930Z,1.60
2022-12-28T22:12:32.398Z,2.17
2022-12-28T22:15:19.346Z,1.65
2022-12-28T22:17:46.506Z,1.70
2022-12-28T22:20:26.931Z,1.80
2022-12-28T22:23:22.140Z,1.67
2022-12-28T22:26:13.884Z,2.03
2022-12-28T22:34:12.338Z,1.80
2022-12-28T22:36:39.925Z,1.70
2022-12-28T22:39:07.121Z,1.88
2022-12-28T22:41:34.005Z,2.15
2022-12-28T22:44:00.838Z,2.05
2022-12-28T22:46:27.699Z,1.75
2022-12-28T22:52:17.198Z,2.10
